Kondopoga, Russia
Current Conditions -  °F | °C
As of 5:20 PM on Saturday 25 Oct 2014 (Local Time) from EFJO Reporting Station
Overcast Overcast  
Wind Chill: 23°   Ceiling: 800
Heat Index: 32°   Visibility: 6mi
Dew Point: 32°   Wind: 13mph
Humidity: 100%   Direction: 170°S
Pressure: 30.15"   Gusts: NA
Location:  62.2°N, 34.28°E
Report Text: EFJO 251420Z 17011KT 130V210 9999 BKN008 OVC019 00/M00 Q1021
Loading
Personal Weather Stations






























Interactive Weather Map
Tropical Storm Tracking
New forecast layout! Learn more

10-Day Weather Forecast

Advertisements
Track Severe Weather on mobile